sensor_id;sensor_type;location;lat;lon;timestamp;pressure;altitude;pressure_sealevel;temperature;humidity
12215;BME280;6170;42.206;24.142;2023-07-13T00:00:37;98855.13;;;24.83;62.09
12215;BME280;6170;42.206;24.142;2023-07-13T00:03:04;98842.69;;;24.72;62.18
12215;BME280;6170;42.206;24.142;2023-07-13T00:05:31;98829.09;;;24.62;62.83
12215;BME280;6170;42.206;24.142;2023-07-13T00:07:58;98914.31;;;25.13;62.71
12215;BME280;6170;42.206;24.142;2023-07-13T00:10:25;98855.56;;;24.72;63.02
12215;BME280;6170;42.206;24.142;2023-07-13T00:12:52;98851.50;;;24.69;62.37
12215;BME280;6170;42.206;24.142;2023-07-13T00:15:24;98906.94;;;24.85;62.36
12215;BME280;6170;42.206;24.142;2023-07-13T00:17:52;98899.41;;;24.72;63.42
12215;BME280;6170;42.206;24.142;2023-07-13T00:20:20;98825.25;;;24.39;63.02
12215;BME280;6170;42.206;24.142;2023-07-13T00:22:48;98883.56;;;24.69;62.62
12215;BME280;6170;42.206;24.142;2023-07-13T00:25:15;98830.88;;;24.29;62.53
12215;BME280;6170;42.206;24.142;2023-07-13T00:27:42;98888.91;;;24.79;63.41
12215;BME280;6170;42.206;24.142;2023-07-13T00:30:10;98899.34;;;24.77;63.46
12215;BME280;6170;42.206;24.142;2023-07-13T00:32:39;98814.59;;;24.38;62.43
12215;BME280;6170;42.206;24.142;2023-07-13T00:35:07;98865.66;;;24.76;62.12
12215;BME280;6170;42.206;24.142;2023-07-13T00:37:34;98795.66;;;24.41;61.63
12215;BME280;6170;42.206;24.142;2023-07-13T00:40:02;98864.00;;;24.75;60.70
12215;BME280;6170;42.206;24.142;2023-07-13T00:42:30;98813.59;;;24.52;61.22
12215;BME280;6170;42.206;24.142;2023-07-13T00:47:51;98812.06;;;24.17;61.17
12215;BME280;6170;42.206;24.142;2023-07-13T00:50:20;98881.91;;;24.44;61.73
12215;BME280;6170;42.206;24.142;2023-07-13T00:52:52;98812.91;;;24.13;61.65
12215;BME280;6170;42.206;24.142;2023-07-13T00:55:21;98865.97;;;24.51;62.25
12215;BME280;6170;42.206;24.142;2023-07-13T00:57:48;98811.56;;;24.39;61.57
12215;BME280;6170;42.206;24.142;2023-07-13T01:00:16;98873.28;;;24.79;61.94
12215;BME280;6170;42.206;24.142;2023-07-13T01:02:45;98872.97;;;24.86;62.05
12215;BME280;6170;42.206;24.142;2023-07-13T01:05:16;98871.06;;;24.81;62.65
12215;BME280;6170;42.206;24.142;2023-07-13T01:07:44;98812.31;;;24.45;62.26
12215;BME280;6170;42.206;24.142;2023-07-13T01:10:12;98869.50;;;24.75;62.54
12215;BME280;6170;42.206;24.142;2023-07-13T01:12:39;98799.63;;;24.30;63.18
12215;BME280;6170;42.206;24.142;2023-07-13T01:15:36;98826.13;;;24.35;63.08
12215;BME280;6170;42.206;24.142;2023-07-13T01:18:04;98864.50;;;24.58;62.90
12215;BME280;6170;42.206;24.142;2023-07-13T01:20:32;98795.97;;;24.16;62.85
12215;BME280;6170;42.206;24.142;2023-07-13T01:23:05;98854.47;;;24.49;62.60
12215;BME280;6170;42.206;24.142;2023-07-13T01:25:34;98840.59;;;24.40;62.22
12215;BME280;6170;42.206;24.142;2023-07-13T01:28:01;98849.81;;;24.49;61.97
12215;BME280;6170;42.206;24.142;2023-07-13T01:30:28;98793.09;;;24.26;61.64
12215;BME280;6170;42.206;24.142;2023-07-13T01:32:55;98801.63;;;24.25;61.63
12215;BME280;6170;42.206;24.142;2023-07-13T01:35:22;98858.56;;;24.51;61.62
12215;BME280;6170;42.206;24.142;2023-07-13T01:37:50;98797.56;;;24.17;61.35
12215;BME280;6170;42.206;24.142;2023-07-13T01:40:19;98850.72;;;24.40;61.34
12215;BME280;6170;42.206;24.142;2023-07-13T01:42:47;98857.94;;;24.31;61.78
12215;BME280;6170;42.206;24.142;2023-07-13T01:45:14;98790.84;;;24.04;61.53
12215;BME280;6170;42.206;24.142;2023-07-13T01:47:41;98858.94;;;24.40;61.25
12215;BME280;6170;42.206;24.142;2023-07-13T01:50:09;98767.59;;;23.73;60.45
12215;BME280;6170;42.206;24.142;2023-07-13T01:52:36;98799.13;;;23.94;61.01
12215;BME280;6170;42.206;24.142;2023-07-13T01:55:03;98863.38;;;24.36;61.23
12215;BME280;6170;42.206;24.142;2023-07-13T01:57:32;98809.34;;;23.89;61.96
12215;BME280;6170;42.206;24.142;2023-07-13T01:59:58;98807.94;;;23.62;62.53
12215;BME280;6170;42.206;24.142;2023-07-13T02:02:25;98877.13;;;23.97;62.86
12215;BME280;6170;42.206;24.142;2023-07-13T02:04:52;98813.00;;;23.40;63.18
12215;BME280;6170;42.206;24.142;2023-07-13T02:07:19;98824.22;;;23.44;63.20
12215;BME280;6170;42.206;24.142;2023-07-13T02:09:46;98806.09;;;23.14;64.03
12215;BME280;6170;42.206;24.142;2023-07-13T02:12:13;98884.56;;;23.57;64.29
12215;BME280;6170;42.206;24.142;2023-07-13T02:14:41;98814.56;;;23.12;64.20
12215;BME280;6170;42.206;24.142;2023-07-13T02:17:09;98816.53;;;23.02;65.18
12215;BME280;6170;42.206;24.142;2023-07-13T02:19:36;98825.13;;;22.75;66.08
12215;BME280;6170;42.206;24.142;2023-07-13T02:22:04;98867.09;;;22.99;65.15
12215;BME280;6170;42.206;24.142;2023-07-13T02:24:31;98820.53;;;22.65;64.81
12215;BME280;6170;42.206;24.142;2023-07-13T02:26:58;98899.53;;;23.16;65.36
12215;BME280;6170;42.206;24.142;2023-07-13T02:29:24;98825.19;;;22.60;66.25
12215;BME280;6170;42.206;24.142;2023-07-13T02:31:53;98839.69;;;22.50;66.20
12215;BME280;6170;42.206;24.142;2023-07-13T02:34:20;98814.63;;;22.38;66.29
12215;BME280;6170;42.206;24.142;2023-07-13T02:36:46;98836.69;;;22.52;66.77
12215;BME280;6170;42.206;24.142;2023-07-13T02:39:13;98896.34;;;22.99;66.14
12215;BME280;6170;42.206;24.142;2023-07-13T02:41:40;98846.47;;;22.63;65.17
12215;BME280;6170;42.206;24.142;2023-07-13T02:44:07;98839.63;;;22.70;65.22
12215;BME280;6170;42.206;24.142;2023-07-13T02:46:36;98909.44;;;23.02;64.14
12215;BME280;6170;42.206;24.142;2023-07-13T02:49:04;98903.97;;;23.07;64.74
12215;BME280;6170;42.206;24.142;2023-07-13T02:51:31;98836.59;;;22.67;64.52
12215;BME280;6170;42.206;24.142;2023-07-13T02:53:59;98848.94;;;22.74;64.17
12215;BME280;6170;42.206;24.142;2023-07-13T02:56:28;98909.59;;;23.31;64.05
12215;BME280;6170;42.206;24.142;2023-07-13T02:58:55;98847.75;;;22.86;63.82
12215;BME280;6170;42.206;24.142;2023-07-13T03:01:23;98846.91;;;22.95;63.63
12215;BME280;6170;42.206;24.142;2023-07-13T03:03:50;98849.31;;;23.02;63.40
12215;BME280;6170;42.206;24.142;2023-07-13T03:06:19;98917.19;;;23.39;63.58
12215;BME280;6170;42.206;24.142;2023-07-13T03:08:47;98854.56;;;22.93;63.50
12215;BME280;6170;42.206;24.142;2023-07-13T03:11:16;98852.66;;;22.89;63.65
12215;BME280;6170;42.206;24.142;2023-07-13T03:13:43;98842.84;;;22.88;63.89
12215;BME280;6170;42.206;24.142;2023-07-13T03:16:10;98840.69;;;22.79;63.68
12215;BME280;6170;42.206;24.142;2023-07-13T03:18:38;98842.78;;;22.98;63.41
12215;BME280;6170;42.206;24.142;2023-07-13T03:21:05;98910.44;;;23.26;62.99
12215;BME280;6170;42.206;24.142;2023-07-13T03:23:34;98841.25;;;22.71;63.12
12215;BME280;6170;42.206;24.142;2023-07-13T03:26:02;98839.31;;;22.87;62.51
12215;BME280;6170;42.206;24.142;2023-07-13T03:28:29;98858.41;;;22.92;62.73
12215;BME280;6170;42.206;24.142;2023-07-13T03:31:01;98913.63;;;23.38;62.52
12215;BME280;6170;42.206;24.142;2023-07-13T03:33:28;98846.97;;;22.80;63.24
12215;BME280;6170;42.206;24.142;2023-07-13T03:35:55;98918.63;;;23.31;63.26
12215;BME280;6170;42.206;24.142;2023-07-13T03:38:22;98856.72;;;23.01;63.15
12215;BME280;6170;42.206;24.142;2023-07-13T03:40:50;98855.56;;;23.12;62.47
12215;BME280;6170;42.206;24.142;2023-07-13T03:43:17;98925.81;;;23.66;61.97
12215;BME280;6170;42.206;24.142;2023-07-13T03:45:46;98863.69;;;23.27;63.47
12215;BME280;6170;42.206;24.142;2023-07-13T03:48:13;98913.25;;;23.60;63.86
12215;BME280;6170;42.206;24.142;2023-07-13T03:50:40;98852.69;;;23.33;64.39
12215;BME280;6170;42.206;24.142;2023-07-13T03:53:07;98860.75;;;23.14;63.70
12215;BME280;6170;42.206;24.142;2023-07-13T03:55:34;98845.91;;;23.25;63.11
12215;BME280;6170;42.206;24.142;2023-07-13T03:58:25;98905.97;;;23.84;61.86
12215;BME280;6170;42.206;24.142;2023-07-13T04:00:52;98783.88;;;23.20;62.27
12215;BME280;6170;42.206;24.142;2023-07-13T04:03:19;98882.88;;;23.95;61.81
12215;BME280;6170;42.206;24.142;2023-07-13T04:05:47;98847.56;;;23.65;62.22
12215;BME280;6170;42.206;24.142;2023-07-13T04:08:14;98844.19;;;23.78;62.35
12215;BME280;6170;42.206;24.142;2023-07-13T04:10:41;98907.53;;;24.29;62.22
12215;BME280;6170;42.206;24.142;2023-07-13T04:13:07;98897.28;;;24.11;62.35
12215;BME280;6170;42.206;24.142;2023-07-13T04:15:36;98851.50;;;23.88;61.73
12215;BME280;6170;42.206;24.142;2023-07-13T04:18:03;98843.28;;;24.16;61.58
12215;BME280;6170;42.206;24.142;2023-07-13T04:20:30;98890.75;;;24.65;61.96
12215;BME280;6170;42.206;24.142;2023-07-13T04:22:58;98842.19;;;24.46;60.66
12215;BME280;6170;42.206;24.142;2023-07-13T04:25:24;98836.84;;;24.79;59.24
12215;BME280;6170;42.206;24.142;2023-07-13T04:27:52;98834.34;;;24.82;59.07
12215;BME280;6170;42.206;24.142;2023-07-13T04:30:19;98844.34;;;25.34;57.58
12215;BME280;6170;42.206;24.142;2023-07-13T04:32:49;98852.03;;;25.70;57.05
12215;BME280;6170;42.206;24.142;2023-07-13T04:35:17;98888.16;;;26.09;57.67
12215;BME280;6170;42.206;24.142;2023-07-13T04:37:46;98897.41;;;26.32;57.46
12215;BME280;6170;42.206;24.142;2023-07-13T04:40:14;98832.78;;;26.34;56.32
12215;BME280;6170;42.206;24.142;2023-07-13T04:42:41;98834.94;;;26.78;55.34
12215;BME280;6170;42.206;24.142;2023-07-13T04:45:08;98839.88;;;27.17;55.63
12215;BME280;6170;42.206;24.142;2023-07-13T04:47:35;98849.63;;;27.37;54.36
12215;BME280;6170;42.206;24.142;2023-07-13T04:50:04;98849.94;;;27.72;54.13
12215;BME280;6170;42.206;24.142;2023-07-13T04:52:31;98853.38;;;28.22;53.24
12215;BME280;6170;42.206;24.142;2023-07-13T04:54:58;98850.06;;;28.42;53.19
12215;BME280;6170;42.206;24.142;2023-07-13T04:57:25;98857.09;;;28.56;53.99
12215;BME280;6170;42.206;24.142;2023-07-13T04:59:52;98851.13;;;29.02;51.71
12215;BME280;6170;42.206;24.142;2023-07-13T05:02:20;98857.53;;;29.37;51.50
12215;BME280;6170;42.206;24.142;2023-07-13T05:04:48;98850.53;;;29.57;51.37
12215;BME280;6170;42.206;24.142;2023-07-13T05:07:16;98916.81;;;29.66;51.29
12215;BME280;6170;42.206;24.142;2023-07-13T05:09:43;98833.50;;;28.73;51.87
12215;BME280;6170;42.206;24.142;2023-07-13T05:12:09;98861.09;;;29.47;50.66
12215;BME280;6170;42.206;24.142;2023-07-13T05:14:36;98851.69;;;29.56;51.27
12215;BME280;6170;42.206;24.142;2023-07-13T05:17:04;98900.06;;;30.22;51.42
12215;BME280;6170;42.206;24.142;2023-07-13T05:19:31;98856.00;;;30.26;49.88
12215;BME280;6170;42.206;24.142;2023-07-13T05:21:58;98863.47;;;30.25;48.47
12215;BME280;6170;42.206;24.142;2023-07-13T05:24:26;98862.63;;;30.33;48.98
12215;BME280;6170;42.206;24.142;2023-07-13T05:26:53;98875.28;;;30.90;49.29
12215;BME280;6170;42.206;24.142;2023-07-13T05:29:20;98890.53;;;31.04;47.85
12215;BME280;6170;42.206;24.142;2023-07-13T05:31:48;98877.19;;;31.27;46.17
12215;BME280;6170;42.206;24.142;2023-07-13T05:34:15;98872.25;;;31.62;47.26
12215;BME280;6170;42.206;24.142;2023-07-13T05:36:42;98834.84;;;31.47;47.72
12215;BME280;6170;42.206;24.142;2023-07-13T05:39:09;98874.25;;;31.53;45.54
12215;BME280;6170;42.206;24.142;2023-07-13T05:41:38;98876.78;;;31.16;46.86
12215;BME280;6170;42.206;24.142;2023-07-13T05:44:05;98869.66;;;31.57;46.26
12215;BME280;6170;42.206;24.142;2023-07-13T05:46:32;98879.81;;;32.06;46.78
12215;BME280;6170;42.206;24.142;2023-07-13T05:48:59;98887.41;;;31.97;45.70
12215;BME280;6170;42.206;24.142;2023-07-13T05:51:26;98890.06;;;31.94;45.10
12215;BME280;6170;42.206;24.142;2023-07-13T05:53:53;98880.56;;;32.48;45.30
12215;BME280;6170;42.206;24.142;2023-07-13T05:56:20;98885.94;;;32.78;44.83
12215;BME280;6170;42.206;24.142;2023-07-13T05:58:49;98878.31;;;32.75;44.60
12215;BME280;6170;42.206;24.142;2023-07-13T06:01:16;98885.13;;;33.02;46.23
12215;BME280;6170;42.206;24.142;2023-07-13T06:03:44;98898.75;;;32.82;46.12
12215;BME280;6170;42.206;24.142;2023-07-13T06:06:11;98879.16;;;32.54;46.00
12215;BME280;6170;42.206;24.142;2023-07-13T06:08:38;98906.31;;;33.18;45.54
12215;BME280;6170;42.206;24.142;2023-07-13T06:11:06;98883.16;;;32.66;44.83
12215;BME280;6170;42.206;24.142;2023-07-13T06:13:33;98892.16;;;33.11;45.33
12215;BME280;6170;42.206;24.142;2023-07-13T06:16:02;98845.22;;;33.58;44.08
12215;BME280;6170;42.206;24.142;2023-07-13T06:18:31;98852.72;;;33.06;44.70
12215;BME280;6170;42.206;24.142;2023-07-13T06:20:58;98866.91;;;32.56;45.93
12215;BME280;6170;42.206;24.142;2023-07-13T06:23:25;98876.19;;;33.45;44.53
12215;BME280;6170;42.206;24.142;2023-07-13T06:25:52;98872.28;;;33.73;45.47
12215;BME280;6170;42.206;24.142;2023-07-13T06:28:19;98872.09;;;34.22;44.54
12215;BME280;6170;42.206;24.142;2023-07-13T06:30:46;98881.59;;;34.80;44.76
12215;BME280;6170;42.206;24.142;2023-07-13T06:33:14;98889.84;;;35.08;43.18
12215;BME280;6170;42.206;24.142;2023-07-13T06:35:42;98915.06;;;35.15;43.35
12215;BME280;6170;42.206;24.142;2023-07-13T06:38:09;98872.50;;;34.99;42.97
12215;BME280;6170;42.206;24.142;2023-07-13T06:40:36;98877.25;;;35.30;42.45
12215;BME280;6170;42.206;24.142;2023-07-13T06:43:03;98869.91;;;34.75;42.24
12215;BME280;6170;42.206;24.142;2023-07-13T06:45:29;98879.66;;;35.31;42.76
12215;BME280;6170;42.206;24.142;2023-07-13T06:47:56;98858.63;;;35.34;41.93
12215;BME280;6170;42.206;24.142;2023-07-13T06:50:25;98858.97;;;35.32;42.69
12215;BME280;6170;42.206;24.142;2023-07-13T06:52:51;98868.47;;;35.47;41.58
12215;BME280;6170;42.206;24.142;2023-07-13T06:55:18;98841.34;;;35.82;40.99
12215;BME280;6170;42.206;24.142;2023-07-13T06:57:45;98864.44;;;35.64;42.65
12215;BME280;6170;42.206;24.142;2023-07-13T07:00:13;98859.09;;;36.13;40.65
12215;BME280;6170;42.206;24.142;2023-07-13T07:02:40;98870.47;;;36.04;40.13
12215;BME280;6170;42.206;24.142;2023-07-13T07:05:07;98870.91;;;36.48;42.79
12215;BME280;6170;42.206;24.142;2023-07-13T07:07:35;98816.59;;;36.19;40.97
12215;BME280;6170;42.206;24.142;2023-07-13T07:10:03;98855.94;;;36.33;40.05
12215;BME280;6170;42.206;24.142;2023-07-13T07:12:29;98856.94;;;36.25;40.65
12215;BME280;6170;42.206;24.142;2023-07-13T07:14:57;98861.38;;;36.49;41.94
12215;BME280;6170;42.206;24.142;2023-07-13T07:17:23;98854.53;;;36.92;40.60
12215;BME280;6170;42.206;24.142;2023-07-13T07:19:51;98853.56;;;36.81;38.76
12215;BME280;6170;42.206;24.142;2023-07-13T07:22:19;98862.25;;;36.76;39.96
12215;BME280;6170;42.206;24.142;2023-07-13T07:24:47;98881.66;;;36.91;37.93
12215;BME280;6170;42.206;24.142;2023-07-13T07:27:14;98860.50;;;36.64;38.13
12215;BME280;6170;42.206;24.142;2023-07-13T07:29:41;98863.75;;;37.19;38.90
12215;BME280;6170;42.206;24.142;2023-07-13T07:32:08;98846.78;;;37.57;38.61
12215;BME280;6170;42.206;24.142;2023-07-13T07:34:35;98851.31;;;38.02;38.83
12215;BME280;6170;42.206;24.142;2023-07-13T07:37:02;98837.78;;;38.08;38.56
12215;BME280;6170;42.206;24.142;2023-07-13T07:39:29;98838.59;;;37.75;37.41
12215;BME280;6170;42.206;24.142;2023-07-13T07:41:58;98823.78;;;37.45;38.21
12215;BME280;6170;42.206;24.142;2023-07-13T07:44:25;98812.34;;;37.53;37.34
12215;BME280;6170;42.206;24.142;2023-07-13T07:46:52;98784.09;;;37.32;36.48
12215;BME280;6170;42.206;24.142;2023-07-13T07:49:19;98803.63;;;37.92;36.14
12215;BME280;6170;42.206;24.142;2023-07-13T07:51:46;98805.13;;;38.19;37.83
12215;BME280;6170;42.206;24.142;2023-07-13T07:54:13;98812.75;;;37.89;35.05
12215;BME280;6170;42.206;24.142;2023-07-13T07:56:41;98784.06;;;37.95;37.47
12215;BME280;6170;42.206;24.142;2023-07-13T07:59:09;98757.03;;;37.69;37.09
12215;BME280;6170;42.206;24.142;2023-07-13T08:01:37;98799.44;;;38.12;34.10
12215;BME280;6170;42.206;24.142;2023-07-13T08:04:04;98777.31;;;38.37;37.19
12215;BME280;6170;42.206;24.142;2023-07-13T08:06:31;98806.16;;;38.92;35.75
12215;BME280;6170;42.206;24.142;2023-07-13T08:08:59;98807.97;;;38.67;35.45
12215;BME280;6170;42.206;24.142;2023-07-13T08:11:27;98816.06;;;38.79;35.61
12215;BME280;6170;42.206;24.142;2023-07-13T08:13:54;98796.31;;;39.16;35.71
12215;BME280;6170;42.206;24.142;2023-07-13T08:16:22;98811.13;;;38.61;35.58
12215;BME280;6170;42.206;24.142;2023-07-13T08:18:49;98819.69;;;39.34;35.77
12215;BME280;6170;42.206;24.142;2023-07-13T08:21:16;98800.88;;;39.41;33.88
12215;BME280;6170;42.206;24.142;2023-07-13T08:23:45;98807.38;;;38.91;34.04
12215;BME280;6170;42.206;24.142;2023-07-13T08:26:13;98796.34;;;39.26;33.82
12215;BME280;6170;42.206;24.142;2023-07-13T08:28:40;98813.69;;;38.81;34.88
12215;BME280;6170;42.206;24.142;2023-07-13T08:31:08;98795.00;;;38.48;35.08
12215;BME280;6170;42.206;24.142;2023-07-13T08:33:36;98786.47;;;38.34;35.49
12215;BME280;6170;42.206;24.142;2023-07-13T08:36:04;98789.47;;;37.44;37.41
12215;BME280;6170;42.206;24.142;2023-07-13T08:38:31;98775.75;;;37.99;37.65
12215;BME280;6170;42.206;24.142;2023-07-13T08:40:58;98783.09;;;38.54;38.59
12215;BME280;6170;42.206;24.142;2023-07-13T08:43:28;98781.44;;;39.04;37.09
12215;BME280;6170;42.206;24.142;2023-07-13T08:46:02;98779.38;;;38.03;36.70
12215;BME280;6170;42.206;24.142;2023-07-13T08:48:34;98790.34;;;38.66;37.69
12215;BME280;6170;42.206;24.142;2023-07-13T08:51:21;98773.59;;;39.31;36.97
12215;BME280;6170;42.206;24.142;2023-07-13T08:53:55;98750.69;;;38.60;37.45
12215;BME280;6170;42.206;24.142;2023-07-13T08:56:27;98784.13;;;38.87;36.35
12215;BME280;6170;42.206;24.142;2023-07-13T08:58:58;98762.00;;;39.36;34.80
12215;BME280;6170;42.206;24.142;2023-07-13T09:01:31;98783.63;;;39.32;36.83
12215;BME280;6170;42.206;24.142;2023-07-13T09:04:05;98771.72;;;39.57;36.18
12215;BME280;6170;42.206;24.142;2023-07-13T09:06:42;98760.63;;;39.92;36.22
12215;BME280;6170;42.206;24.142;2023-07-13T09:09:23;98761.47;;;40.35;36.03
12215;BME280;6170;42.206;24.142;2023-07-13T09:11:58;98755.84;;;40.60;37.12
12215;BME280;6170;42.206;24.142;2023-07-13T09:14:42;98756.22;;;40.12;37.02
12215;BME280;6170;42.206;24.142;2023-07-13T09:17:16;98779.94;;;40.57;37.51
12215;BME280;6170;42.206;24.142;2023-07-13T09:19:47;98720.16;;;40.32;36.11
12215;BME280;6170;42.206;24.142;2023-07-13T09:22:19;98740.19;;;40.55;35.25
12215;BME280;6170;42.206;24.142;2023-07-13T09:24:59;98702.13;;;38.97;33.76
12215;BME280;6170;42.206;24.142;2023-07-13T09:27:31;98728.94;;;40.02;35.68
12215;BME280;6170;42.206;24.142;2023-07-13T09:30:22;98775.84;;;39.98;34.89
12215;BME280;6170;42.206;24.142;2023-07-13T09:32:52;98722.53;;;39.87;32.78
12215;BME280;6170;42.206;24.142;2023-07-13T09:35:24;98748.56;;;40.06;33.15
12215;BME280;6170;42.206;24.142;2023-07-13T09:37:58;98712.19;;;39.05;36.62
12215;BME280;6170;42.206;24.142;2023-07-13T09:40:30;98704.28;;;39.25;36.19
12215;BME280;6170;42.206;24.142;2023-07-13T09:43:03;98701.09;;;39.30;37.85
12215;BME280;6170;42.206;24.142;2023-07-13T09:45:33;98693.06;;;39.21;33.64
12215;BME280;6170;42.206;24.142;2023-07-13T09:48:04;98689.19;;;39.61;35.09
12215;BME280;6170;42.206;24.142;2023-07-13T09:50:33;98696.34;;;39.44;34.43
12215;BME280;6170;42.206;24.142;2023-07-13T09:53:02;98697.66;;;39.79;34.79
12215;BME280;6170;42.206;24.142;2023-07-13T09:55:31;98682.38;;;39.69;34.04
12215;BME280;6170;42.206;24.142;2023-07-13T09:58:03;98688.81;;;40.76;33.85
12215;BME280;6170;42.206;24.142;2023-07-13T10:00:32;98681.44;;;39.26;34.34
12215;BME280;6170;42.206;24.142;2023-07-13T10:03:01;98686.03;;;39.94;33.88
12215;BME280;6170;42.206;24.142;2023-07-13T10:05:37;98676.41;;;40.38;36.48
12215;BME280;6170;42.206;24.142;2023-07-13T10:08:05;98686.44;;;40.46;36.54
12215;BME280;6170;42.206;24.142;2023-07-13T10:10:33;98678.31;;;39.52;34.12
12215;BME280;6170;42.206;24.142;2023-07-13T10:13:01;98674.75;;;39.56;32.71
12215;BME280;6170;42.206;24.142;2023-07-13T10:15:30;98695.69;;;40.01;37.60
12215;BME280;6170;42.206;24.142;2023-07-13T10:17:57;98673.63;;;40.13;36.27
12215;BME280;6170;42.206;24.142;2023-07-13T10:20:25;98674.41;;;40.38;36.67
12215;BME280;6170;42.206;24.142;2023-07-13T10:22:56;98682.78;;;40.77;37.49
12215;BME280;6170;42.206;24.142;2023-07-13T10:25:29;98675.13;;;40.92;36.77
12215;BME280;6170;42.206;24.142;2023-07-13T10:28:02;98675.59;;;40.52;38.07
12215;BME280;6170;42.206;24.142;2023-07-13T10:30:34;98664.38;;;40.66;37.17
12215;BME280;6170;42.206;24.142;2023-07-13T10:33:03;98671.19;;;40.65;34.05
12215;BME280;6170;42.206;24.142;2023-07-13T10:35:37;98664.78;;;40.15;35.11
12215;BME280;6170;42.206;24.142;2023-07-13T10:38:07;98640.34;;;40.22;34.67
12215;BME280;6170;42.206;24.142;2023-07-13T10:40:41;98657.03;;;40.93;33.88
12215;BME280;6170;42.206;24.142;2023-07-13T10:43:14;98661.69;;;41.32;34.39
12215;BME280;6170;42.206;24.142;2023-07-13T10:45:45;98649.09;;;40.74;31.48
12215;BME280;6170;42.206;24.142;2023-07-13T10:48:15;98661.97;;;40.43;35.45
12215;BME280;6170;42.206;24.142;2023-07-13T10:50:45;98634.91;;;40.99;36.75
12215;BME280;6170;42.206;24.142;2023-07-13T10:53:19;98635.94;;;40.14;35.40
12215;BME280;6170;42.206;24.142;2023-07-13T10:55:59;98633.06;;;40.64;34.94
12215;BME280;6170;42.206;24.142;2023-07-13T10:58:33;98638.84;;;41.22;33.86
12215;BME280;6170;42.206;24.142;2023-07-13T11:01:07;98624.69;;;41.44;33.90
12215;BME280;6170;42.206;24.142;2023-07-13T11:03:36;98635.47;;;41.52;35.18
12215;BME280;6170;42.206;24.142;2023-07-13T11:06:08;98627.78;;;41.63;34.50
12215;BME280;6170;42.206;24.142;2023-07-13T11:08:37;98618.44;;;41.77;34.68
12215;BME280;6170;42.206;24.142;2023-07-13T11:11:37;98625.81;;;41.60;33.37
12215;BME280;6170;42.206;24.142;2023-07-13T11:14:09;98634.63;;;40.75;30.58
12215;BME280;6170;42.206;24.142;2023-07-13T11:16:51;98649.53;;;41.52;32.00
12215;BME280;6170;42.206;24.142;2023-07-13T11:19:38;98609.03;;;41.46;34.10
12215;BME280;6170;42.206;24.142;2023-07-13T11:22:24;98620.13;;;41.67;33.19
12215;BME280;6170;42.206;24.142;2023-07-13T11:24:59;98605.94;;;41.82;34.00
12215;BME280;6170;42.206;24.142;2023-07-13T11:27:40;98608.41;;;42.21;34.58
12215;BME280;6170;42.206;24.142;2023-07-13T11:30:23;98563.44;;;41.00;34.16
12215;BME280;6170;42.206;24.142;2023-07-13T11:33:02;98611.06;;;41.35;34.06
12215;BME280;6170;42.206;24.142;2023-07-13T11:35:34;98594.72;;;41.12;35.07
12215;BME280;6170;42.206;24.142;2023-07-13T11:38:03;98651.97;;;41.54;36.05
12215;BME280;6170;42.206;24.142;2023-07-13T11:40:38;98597.38;;;41.44;34.11
12215;BME280;6170;42.206;24.142;2023-07-13T11:43:07;98583.56;;;41.64;34.26
12215;BME280;6170;42.206;24.142;2023-07-13T11:45:34;98588.25;;;41.81;33.13
12215;BME280;6170;42.206;24.142;2023-07-13T11:48:01;98599.91;;;42.24;35.64
12215;BME280;6170;42.206;24.142;2023-07-13T11:50:28;98569.78;;;41.77;34.36
12215;BME280;6170;42.206;24.142;2023-07-13T11:52:58;98568.53;;;41.85;34.00
12215;BME280;6170;42.206;24.142;2023-07-13T11:55:25;98575.34;;;41.84;34.82
12215;BME280;6170;42.206;24.142;2023-07-13T11:57:57;98574.28;;;41.67;34.78
12215;BME280;6170;42.206;24.142;2023-07-13T12:00:29;98561.75;;;41.16;32.81
12215;BME280;6170;42.206;24.142;2023-07-13T12:02:59;98557.44;;;41.63;33.45
12215;BME280;6170;42.206;24.142;2023-07-13T12:05:28;98560.81;;;41.92;35.37
12215;BME280;6170;42.206;24.142;2023-07-13T12:07:57;98567.84;;;41.66;32.85
12215;BME280;6170;42.206;24.142;2023-07-13T12:10:25;98554.00;;;40.58;33.10
12215;BME280;6170;42.206;24.142;2023-07-13T12:12:56;98520.00;;;40.35;36.32
12215;BME280;6170;42.206;24.142;2023-07-13T12:15:28;98542.56;;;41.08;33.05
12215;BME280;6170;42.206;24.142;2023-07-13T12:17:59;98535.78;;;40.95;32.37
12215;BME280;6170;42.206;24.142;2023-07-13T12:20:27;98544.84;;;40.44;34.26
12215;BME280;6170;42.206;24.142;2023-07-13T12:22:56;98532.41;;;40.37;33.53
12215;BME280;6170;42.206;24.142;2023-07-13T12:25:24;98531.13;;;40.67;36.47
12215;BME280;6170;42.206;24.142;2023-07-13T12:27:51;98525.09;;;40.65;32.51
12215;BME280;6170;42.206;24.142;2023-07-13T12:30:28;98531.88;;;40.78;33.55
12215;BME280;6170;42.206;24.142;2023-07-13T12:32:58;98518.91;;;41.02;34.94
12215;BME280;6170;42.206;24.142;2023-07-13T12:35:28;98533.88;;;41.47;34.60
12215;BME280;6170;42.206;24.142;2023-07-13T12:37:59;98516.75;;;41.23;33.41
12215;BME280;6170;42.206;24.142;2023-07-13T12:40:30;98536.78;;;41.84;33.12
12215;BME280;6170;42.206;24.142;2023-07-13T12:42:58;98523.50;;;41.81;34.80
12215;BME280;6170;42.206;24.142;2023-07-13T12:45:28;98513.84;;;41.38;33.95
12215;BME280;6170;42.206;24.142;2023-07-13T12:47:57;98495.88;;;41.24;34.57
12215;BME280;6170;42.206;24.142;2023-07-13T12:50:30;98523.06;;;41.35;35.54
12215;BME280;6170;42.206;24.142;2023-07-13T12:53:03;98517.06;;;41.36;32.77
12215;BME280;6170;42.206;24.142;2023-07-13T12:55:41;98508.38;;;40.29;32.54
12215;BME280;6170;42.206;24.142;2023-07-13T12:58:16;98510.06;;;41.07;34.78
12215;BME280;6170;42.206;24.142;2023-07-13T13:00:50;98505.13;;;41.18;34.33
12215;BME280;6170;42.206;24.142;2023-07-13T13:03:24;98530.94;;;41.06;33.94
12215;BME280;6170;42.206;24.142;2023-07-13T13:06:00;98470.38;;;40.91;35.78
12215;BME280;6170;42.206;24.142;2023-07-13T13:08:29;98495.94;;;41.14;34.97
12215;BME280;6170;42.206;24.142;2023-07-13T13:10:56;98500.13;;;40.85;36.59
12215;BME280;6170;42.206;24.142;2023-07-13T13:13:23;98491.59;;;40.95;35.25